HVN134 WMKP-VVTS
Flight info
| Callsign | HVN134 |
|---|---|
| Flight time | N/A |
| Altitude | 37000 |
| Route | BETNU1A BETNU W546 VKB M765 IGARI/K0859F370 M765 BITOD L637 ANBOV ANBOV5A |
| Aircraft | A321/M-SDE3FGHIRWY/LB1 |
Departure
| Time | 2026-05-09 02:50 |
|---|---|
| Airport | Penang International Airport (WMKP) |
Arrival
| Time | N/A |
|---|---|
| Airport | Tan Son Nhat International Airport (VVTS) |
| Time | Latitude | Longitude | Altitude | Speed | Heading |
|---|---|---|---|---|---|
| 2026-05-09 02:27 | 5.29332 | 100.26747 | 23 ft | 0 kts | 311° |
| 2026-05-09 02:42 | 5.29331 | 100.26748 | 24 ft | 2 kts | 311° |
| 2026-05-09 02:42 | 5.29316 | 100.26768 | 23 ft | 4 kts | 300° |
| 2026-05-09 02:42 | 5.29305 | 100.26792 | 25 ft | 4 kts | 282° |
| 2026-05-09 02:42 | 5.29303 | 100.26818 | 25 ft | 4 kts | 256° |
| 2026-05-09 02:43 | 5.29313 | 100.26840 | 24 ft | 2 kts | 222° |
| 2026-05-09 02:43 | 5.29314 | 100.26841 | 24 ft | 0 kts | 221° |
| 2026-05-09 02:45 | 5.29309 | 100.26836 | 24 ft | 2 kts | 222° |
| 2026-05-09 02:45 | 5.29290 | 100.26819 | 25 ft | 5 kts | 222° |
| 2026-05-09 02:45 | 5.29258 | 100.26791 | 23 ft | 7 kts | 221° |
| 2026-05-09 02:46 | 5.29219 | 100.26756 | 23 ft | 8 kts | 221° |
| 2026-05-09 02:46 | 5.29171 | 100.26713 | 25 ft | 10 kts | 221° |
| 2026-05-09 02:46 | 5.29116 | 100.26664 | 23 ft | 11 kts | 221° |
| 2026-05-09 02:46 | 5.29054 | 100.26609 | 23 ft | 13 kts | 221° |
| 2026-05-09 02:47 | 5.28985 | 100.26548 | 23 ft | 14 kts | 221° |
| 2026-05-09 02:47 | 5.28909 | 100.26480 | 24 ft | 15 kts | 222° |
| 2026-05-09 02:47 | 5.28850 | 100.26485 | 23 ft | 9 kts | 139° |
| 2026-05-09 02:47 | 5.28802 | 100.26538 | 23 ft | 11 kts | 131° |
| 2026-05-09 02:48 | 5.28740 | 100.26577 | 23 ft | 11 kts | 172° |
| 2026-05-09 02:48 | 5.28667 | 100.26606 | 23 ft | 12 kts | 137° |
| 2026-05-09 02:48 | 5.28612 | 100.26664 | 24 ft | 6 kts | 130° |
| 2026-05-09 02:48 | 5.28626 | 100.26697 | 23 ft | 6 kts | 41° |
| 2026-05-09 02:49 | 5.28638 | 100.26708 | 23 ft | 0 kts | 41° |
| 2026-05-09 02:49 | 5.28771 | 100.26828 | 25 ft | 63 kts | 43° |
| 2026-05-09 02:50 | 5.29277 | 100.27288 | 27 ft | 131 kts | 42° |
| 2026-05-09 02:50 | 5.30080 | 100.28023 | 202 ft | 166 kts | 43° |
| 2026-05-09 02:50 | 5.30875 | 100.28772 | 1037 ft | 151 kts | 42° |
| 2026-05-09 02:50 | 5.31676 | 100.29483 | 1483 ft | 161 kts | 41° |
| 2026-05-09 02:51 | 5.32580 | 100.30271 | 1738 ft | 183 kts | 41° |
| 2026-05-09 02:51 | 5.33415 | 100.31317 | 1967 ft | 205 kts | 68° |
| 2026-05-09 02:51 | 5.33681 | 100.32793 | 2151 ft | 227 kts | 83° |
| 2026-05-09 02:51 | 5.33915 | 100.34448 | 2308 ft | 253 kts | 81° |
| 2026-05-09 02:52 | 5.34201 | 100.36241 | 2809 ft | 265 kts | 81° |
| 2026-05-09 02:52 | 5.34503 | 100.38084 | 3507 ft | 269 kts | 81° |
| 2026-05-09 02:52 | 5.34808 | 100.39942 | 4256 ft | 271 kts | 81° |
| 2026-05-09 02:52 | 5.35113 | 100.41820 | 4978 ft | 274 kts | 81° |
| 2026-05-09 02:53 | 5.35419 | 100.43714 | 5699 ft | 276 kts | 81° |
| 2026-05-09 02:53 | 5.35725 | 100.45622 | 6413 ft | 278 kts | 81° |
| 2026-05-09 02:53 | 5.36034 | 100.47540 | 7067 ft | 280 kts | 81° |
| 2026-05-09 02:53 | 5.36340 | 100.49458 | 7722 ft | 283 kts | 81° |
| 2026-05-09 02:54 | 5.36651 | 100.51414 | 8365 ft | 285 kts | 81° |
| 2026-05-09 02:54 | 5.36964 | 100.53385 | 9029 ft | 288 kts | 81° |
| 2026-05-09 02:54 | 5.37278 | 100.55378 | 9690 ft | 290 kts | 81° |
| 2026-05-09 02:54 | 5.37595 | 100.57396 | 10158 ft | 299 kts | 81° |
| 2026-05-09 02:55 | 5.38272 | 100.59438 | 10280 ft | 320 kts | 64° |
| 2026-05-09 02:55 | 5.39328 | 100.61482 | 10400 ft | 339 kts | 63° |
| 2026-05-09 02:55 | 5.40461 | 100.63631 | 10521 ft | 357 kts | 63° |
| 2026-05-09 02:55 | 5.41650 | 100.65875 | 10712 ft | 370 kts | 63° |
| 2026-05-09 02:56 | 5.42865 | 100.68172 | 11131 ft | 375 kts | 63° |
| 2026-05-09 02:56 | 5.44091 | 100.70494 | 11615 ft | 378 kts | 63° |
| 2026-05-09 02:56 | 5.45323 | 100.72838 | 12093 ft | 381 kts | 63° |
| 2026-05-09 02:56 | 5.46562 | 100.75202 | 12568 ft | 384 kts | 63° |
| 2026-05-09 02:57 | 5.47808 | 100.77587 | 13042 ft | 387 kts | 63° |
| 2026-05-09 02:57 | 5.49062 | 100.79991 | 13503 ft | 390 kts | 64° |
| 2026-05-09 02:57 | 5.50325 | 100.82406 | 13936 ft | 393 kts | 63° |
| 2026-05-09 02:57 | 5.51599 | 100.84842 | 14366 ft | 395 kts | 63° |
| 2026-05-09 02:58 | 5.52881 | 100.87298 | 14813 ft | 397 kts | 63° |
| 2026-05-09 02:58 | 5.54166 | 100.89757 | 15245 ft | 399 kts | 63° |
| 2026-05-09 02:58 | 5.55454 | 100.92221 | 15691 ft | 400 kts | 63° |
| 2026-05-09 02:58 | 5.56750 | 100.94702 | 16116 ft | 402 kts | 63° |
| 2026-05-09 02:59 | 5.58052 | 100.97193 | 16534 ft | 404 kts | 63° |
| 2026-05-09 02:59 | 5.59361 | 100.99694 | 16947 ft | 406 kts | 63° |
| 2026-05-09 02:59 | 5.60677 | 101.02207 | 17359 ft | 407 kts | 63° |
| 2026-05-09 02:59 | 5.61979 | 101.04696 | 17770 ft | 409 kts | 63° |
| 2026-05-09 03:00 | 5.63321 | 101.07265 | 18151 ft | 411 kts | 63° |
| 2026-05-09 03:00 | 5.64631 | 101.09777 | 18500 ft | 413 kts | 63° |
| 2026-05-09 03:00 | 5.65966 | 101.12335 | 18806 ft | 414 kts | 63° |
| 2026-05-09 03:00 | 5.67308 | 101.14903 | 19136 ft | 416 kts | 63° |
| 2026-05-09 03:01 | 5.68657 | 101.17482 | 19464 ft | 418 kts | 63° |
| 2026-05-09 03:01 | 5.70011 | 101.20075 | 19783 ft | 420 kts | 63° |
| 2026-05-09 03:01 | 5.71365 | 101.22674 | 20103 ft | 422 kts | 63° |
| 2026-05-09 03:01 | 5.72728 | 101.25290 | 20418 ft | 424 kts | 63° |
| 2026-05-09 03:02 | 5.74102 | 101.27925 | 20720 ft | 426 kts | 63° |
| 2026-05-09 03:02 | 5.75476 | 101.30561 | 21031 ft | 428 kts | 63° |
| 2026-05-09 03:02 | 5.76865 | 101.33221 | 21327 ft | 430 kts | 63° |
| 2026-05-09 03:02 | 5.78251 | 101.35878 | 21634 ft | 432 kts | 63° |
| 2026-05-09 03:03 | 5.79650 | 101.38554 | 21925 ft | 433 kts | 63° |
| 2026-05-09 03:03 | 5.81054 | 101.41240 | 22218 ft | 435 kts | 63° |
| 2026-05-09 03:03 | 5.82463 | 101.43940 | 22503 ft | 437 kts | 63° |
| 2026-05-09 03:03 | 5.83877 | 101.46653 | 22788 ft | 439 kts | 63° |
| 2026-05-09 03:04 | 5.85296 | 101.49374 | 23076 ft | 441 kts | 63° |
| 2026-05-09 03:04 | 5.86723 | 101.52108 | 23329 ft | 443 kts | 63° |
| 2026-05-09 03:04 | 5.88135 | 101.54817 | 23577 ft | 445 kts | 63° |
| 2026-05-09 03:04 | 5.89570 | 101.57574 | 23806 ft | 446 kts | 63° |
| 2026-05-09 03:05 | 5.91008 | 101.60342 | 24039 ft | 448 kts | 63° |
| 2026-05-09 03:05 | 5.92452 | 101.63119 | 24268 ft | 449 kts | 63° |
| 2026-05-09 03:05 | 5.93898 | 101.65899 | 24499 ft | 451 kts | 63° |
| 2026-05-09 03:05 | 5.95352 | 101.68695 | 24729 ft | 452 kts | 63° |
| 2026-05-09 03:06 | 5.96815 | 101.71498 | 24970 ft | 454 kts | 63° |
| 2026-05-09 03:06 | 5.98282 | 101.74309 | 25195 ft | 455 kts | 63° |
| 2026-05-09 03:06 | 5.99753 | 101.77131 | 25415 ft | 457 kts | 63° |
| 2026-05-09 03:06 | 6.01228 | 101.79965 | 25639 ft | 458 kts | 63° |
| 2026-05-09 03:07 | 6.02705 | 101.82809 | 25868 ft | 460 kts | 63° |
| 2026-05-09 03:07 | 6.04186 | 101.85662 | 26084 ft | 461 kts | 63° |
| 2026-05-09 03:07 | 6.05675 | 101.88526 | 26300 ft | 463 kts | 63° |
| 2026-05-09 03:07 | 6.07167 | 101.91389 | 26498 ft | 464 kts | 63° |
| 2026-05-09 03:08 | 6.08665 | 101.94266 | 26692 ft | 465 kts | 63° |
| 2026-05-09 03:08 | 6.10167 | 101.97153 | 26877 ft | 467 kts | 63° |
| 2026-05-09 03:08 | 6.11818 | 101.99963 | 27038 ft | 469 kts | 54° |
| 2026-05-09 03:08 | 6.13843 | 102.02541 | 27201 ft | 470 kts | 52° |
| 2026-05-09 03:09 | 6.15866 | 102.05073 | 27353 ft | 471 kts | 52° |
| 2026-05-09 03:09 | 6.17927 | 102.07641 | 27532 ft | 472 kts | 52° |
| 2026-05-09 03:09 | 6.19988 | 102.10204 | 27735 ft | 472 kts | 52° |
| 2026-05-09 03:09 | 6.22049 | 102.12768 | 27979 ft | 471 kts | 52° |
| 2026-05-09 03:10 | 6.24105 | 102.15328 | 28205 ft | 471 kts | 52° |
| 2026-05-09 03:10 | 6.26157 | 102.17889 | 28428 ft | 470 kts | 52° |
| 2026-05-09 03:10 | 6.28206 | 102.20450 | 28646 ft | 470 kts | 52° |
| 2026-05-09 03:10 | 6.30253 | 102.23011 | 28872 ft | 470 kts | 52° |
| 2026-05-09 03:11 | 6.32296 | 102.25570 | 29088 ft | 469 kts | 52° |
| 2026-05-09 03:11 | 6.34337 | 102.28127 | 29318 ft | 469 kts | 52° |
| 2026-05-09 03:11 | 6.36377 | 102.30683 | 29549 ft | 468 kts | 52° |
| 2026-05-09 03:11 | 6.38416 | 102.33235 | 29781 ft | 468 kts | 52° |
| 2026-05-09 03:12 | 6.40457 | 102.35783 | 29991 ft | 468 kts | 52° |
| 2026-05-09 03:12 | 6.42496 | 102.38328 | 30190 ft | 467 kts | 52° |
| 2026-05-09 03:12 | 6.44528 | 102.40866 | 30388 ft | 467 kts | 52° |
| 2026-05-09 03:12 | 6.46565 | 102.43413 | 30590 ft | 466 kts | 52° |
| 2026-05-09 03:13 | 6.50592 | 102.48456 | 31004 ft | 465 kts | 52° |
| 2026-05-09 03:13 | 6.52641 | 102.51022 | 31206 ft | 464 kts | 52° |
| 2026-05-09 03:13 | 6.54630 | 102.53516 | 31421 ft | 463 kts | 52° |
| 2026-05-09 03:14 | 6.56646 | 102.56043 | 31645 ft | 463 kts | 52° |
| 2026-05-09 03:14 | 6.58658 | 102.58565 | 31842 ft | 462 kts | 52° |
| 2026-05-09 03:14 | 6.60664 | 102.61078 | 32054 ft | 461 kts | 52° |
| 2026-05-09 03:14 | 6.62677 | 102.63598 | 32268 ft | 461 kts | 52° |
| 2026-05-09 03:15 | 6.64685 | 102.66109 | 32469 ft | 460 kts | 52° |
| 2026-05-09 03:15 | 6.66688 | 102.68619 | 32673 ft | 460 kts | 52° |
| 2026-05-09 03:15 | 6.68685 | 102.71121 | 32868 ft | 459 kts | 52° |
| 2026-05-09 03:15 | 6.70686 | 102.73625 | 33076 ft | 459 kts | 52° |
| 2026-05-09 03:16 | 6.72684 | 102.76130 | 33277 ft | 459 kts | 52° |
| 2026-05-09 03:16 | 6.74681 | 102.78634 | 33469 ft | 459 kts | 52° |
| 2026-05-09 03:16 | 6.76678 | 102.81136 | 33667 ft | 458 kts | 52° |
| 2026-05-09 03:16 | 6.78673 | 102.83637 | 33865 ft | 458 kts | 52° |
| 2026-05-09 03:17 | 6.80665 | 102.86138 | 34051 ft | 458 kts | 52° |
| 2026-05-09 03:17 | 6.82654 | 102.88639 | 34218 ft | 458 kts | 52° |
| 2026-05-09 03:17 | 6.84642 | 102.91140 | 34396 ft | 457 kts | 52° |
| 2026-05-09 03:17 | 6.86629 | 102.93637 | 34580 ft | 457 kts | 52° |
| 2026-05-09 03:18 | 6.88614 | 102.96132 | 34770 ft | 456 kts | 52° |
| 2026-05-09 03:18 | 6.90599 | 102.98621 | 34958 ft | 456 kts | 52° |
| 2026-05-09 03:18 | 6.92585 | 103.01106 | 35149 ft | 455 kts | 51° |
| 2026-05-09 03:18 | 6.94566 | 103.03582 | 35342 ft | 455 kts | 51° |
| 2026-05-09 03:19 | 6.96519 | 103.06029 | 35535 ft | 454 kts | 51° |
| 2026-05-09 03:19 | 6.98499 | 103.08513 | 35731 ft | 453 kts | 51° |
| 2026-05-09 03:19 | 7.00465 | 103.10983 | 35923 ft | 453 kts | 51° |
| 2026-05-09 03:19 | 7.02431 | 103.13455 | 36109 ft | 452 kts | 51° |
| 2026-05-09 03:20 | 7.04393 | 103.15926 | 36288 ft | 452 kts | 51° |
| 2026-05-09 03:20 | 7.06352 | 103.18395 | 36454 ft | 451 kts | 51° |
| 2026-05-09 03:20 | 7.08310 | 103.20861 | 36624 ft | 451 kts | 51° |
| 2026-05-09 03:20 | 7.10269 | 103.23322 | 36805 ft | 450 kts | 51° |
| 2026-05-09 03:21 | 7.14195 | 103.28245 | 36919 ft | 452 kts | 51° |
| 2026-05-09 03:21 | 7.18131 | 103.33194 | 36920 ft | 453 kts | 51° |
| 2026-05-09 03:22 | 7.22068 | 103.38145 | 36920 ft | 453 kts | 51° |
| 2026-05-09 03:22 | 7.26004 | 103.43091 | 36921 ft | 453 kts | 51° |
| 2026-05-09 03:23 | 7.29913 | 103.48015 | 36925 ft | 453 kts | 51° |
| 2026-05-09 03:23 | 7.33851 | 103.52978 | 36932 ft | 454 kts | 51° |
| 2026-05-09 03:24 | 7.37793 | 103.57948 | 36937 ft | 454 kts | 51° |
| 2026-05-09 03:24 | 7.41741 | 103.62926 | 36943 ft | 455 kts | 51° |
| 2026-05-09 03:25 | 7.45689 | 103.67906 | 36945 ft | 455 kts | 51° |
| 2026-05-09 03:25 | 7.49635 | 103.72883 | 36948 ft | 455 kts | 51° |
| 2026-05-09 03:26 | 7.53590 | 103.77859 | 36950 ft | 455 kts | 51° |
| 2026-05-09 03:26 | 7.57537 | 103.82839 | 36952 ft | 455 kts | 51° |
| 2026-05-09 03:27 | 7.61477 | 103.87829 | 36953 ft | 455 kts | 51° |
| 2026-05-09 03:27 | 7.65418 | 103.92810 | 36953 ft | 454 kts | 51° |
| 2026-05-09 03:28 | 7.69367 | 103.97788 | 36954 ft | 454 kts | 51° |
| 2026-05-09 03:28 | 7.73313 | 104.02762 | 36953 ft | 454 kts | 51° |
| 2026-05-09 03:29 | 7.76589 | 104.06901 | 36952 ft | 454 kts | 51° |
| 2026-05-09 03:29 | 7.80520 | 104.11880 | 36956 ft | 454 kts | 51° |
| 2026-05-09 03:30 | 7.85089 | 104.17664 | 36957 ft | 454 kts | 51° |
| 2026-05-09 03:30 | 7.88557 | 104.21667 | 36965 ft | 452 kts | 40° |
| 2026-05-09 03:31 | 7.93368 | 104.25752 | 36956 ft | 453 kts | 40° |
| 2026-05-09 03:31 | 7.98201 | 104.29837 | 36949 ft | 453 kts | 40° |
| 2026-05-09 03:32 | 8.03022 | 104.33911 | 36954 ft | 452 kts | 40° |
| 2026-05-09 03:32 | 8.07812 | 104.37967 | 36956 ft | 452 kts | 40° |
| 2026-05-09 03:33 | 8.12629 | 104.42051 | 36956 ft | 452 kts | 40° |
| 2026-05-09 03:33 | 8.17444 | 104.46135 | 36960 ft | 452 kts | 40° |
| 2026-05-09 03:34 | 8.22259 | 104.50220 | 36954 ft | 452 kts | 40° |
| 2026-05-09 03:34 | 8.27074 | 104.54304 | 36958 ft | 452 kts | 40° |
| 2026-05-09 03:35 | 8.31883 | 104.58386 | 36953 ft | 452 kts | 40° |
| 2026-05-09 03:35 | 8.36706 | 104.62479 | 36953 ft | 452 kts | 40° |
| 2026-05-09 03:36 | 8.41523 | 104.66564 | 36958 ft | 453 kts | 40° |
| 2026-05-09 03:36 | 8.46343 | 104.70661 | 36958 ft | 453 kts | 40° |
| 2026-05-09 03:37 | 8.51134 | 104.74726 | 36963 ft | 453 kts | 40° |
| 2026-05-09 03:37 | 8.55951 | 104.78822 | 36963 ft | 453 kts | 40° |
| 2026-05-09 03:38 | 8.60769 | 104.82921 | 36960 ft | 453 kts | 40° |
| 2026-05-09 03:38 | 8.65587 | 104.87020 | 36955 ft | 452 kts | 40° |
| 2026-05-09 03:39 | 8.70408 | 104.91114 | 36959 ft | 452 kts | 39° |
| 2026-05-09 03:39 | 8.75225 | 104.95209 | 36961 ft | 452 kts | 40° |
| 2026-05-09 03:40 | 8.80037 | 104.99304 | 36962 ft | 452 kts | 40° |
| 2026-05-09 03:40 | 8.84848 | 105.03391 | 36960 ft | 452 kts | 39° |
| 2026-05-09 03:41 | 8.89655 | 105.07492 | 36959 ft | 452 kts | 40° |
| 2026-05-09 03:41 | 8.94460 | 105.11592 | 36961 ft | 452 kts | 40° |
| 2026-05-09 03:42 | 8.99264 | 105.15690 | 36960 ft | 452 kts | 40° |
| 2026-05-09 03:42 | 9.04061 | 105.19788 | 36960 ft | 452 kts | 40° |
| 2026-05-09 03:43 | 9.08869 | 105.23887 | 36959 ft | 452 kts | 40° |
| 2026-05-09 03:43 | 9.13647 | 105.27956 | 36959 ft | 452 kts | 40° |
| 2026-05-09 03:44 | 9.18453 | 105.32056 | 36955 ft | 452 kts | 40° |
| 2026-05-09 03:44 | 9.23253 | 105.36158 | 36957 ft | 451 kts | 40° |
| 2026-05-09 03:45 | 9.28054 | 105.40257 | 36958 ft | 451 kts | 40° |
| 2026-05-09 03:45 | 9.32847 | 105.44347 | 36958 ft | 451 kts | 40° |
| 2026-05-09 03:46 | 9.37640 | 105.48453 | 36952 ft | 451 kts | 40° |
| 2026-05-09 03:46 | 9.42422 | 105.52548 | 36954 ft | 450 kts | 40° |
| 2026-05-09 03:47 | 9.47208 | 105.56645 | 36953 ft | 450 kts | 39° |
| 2026-05-09 03:47 | 9.52000 | 105.60735 | 36952 ft | 450 kts | 40° |
| 2026-05-09 03:48 | 9.56788 | 105.64832 | 36951 ft | 450 kts | 40° |
| 2026-05-09 03:48 | 9.61570 | 105.68935 | 36949 ft | 450 kts | 40° |
| 2026-05-09 03:49 | 9.66324 | 105.73003 | 36950 ft | 450 kts | 39° |
| 2026-05-09 03:49 | 9.71098 | 105.77096 | 36950 ft | 450 kts | 40° |
| 2026-05-09 03:50 | 9.75878 | 105.81195 | 36950 ft | 450 kts | 40° |
| 2026-05-09 03:50 | 9.80655 | 105.85294 | 36950 ft | 450 kts | 40° |
| 2026-05-09 03:51 | 9.85344 | 105.89505 | 36952 ft | 450 kts | 42° |
| 2026-05-09 03:51 | 9.89892 | 105.93850 | 36805 ft | 446 kts | 43° |
| 2026-05-09 03:52 | 9.92122 | 105.95998 | 36554 ft | 439 kts | 43° |
| 2026-05-09 03:52 | 9.94335 | 105.98115 | 36308 ft | 436 kts | 43° |
| 2026-05-09 03:52 | 9.96543 | 106.00208 | 36072 ft | 433 kts | 42° |
| 2026-05-09 03:52 | 9.98745 | 106.02282 | 35825 ft | 431 kts | 42° |
| 2026-05-09 03:53 | 10.00940 | 106.04344 | 35591 ft | 429 kts | 42° |
| 2026-05-09 03:53 | 10.03126 | 106.06397 | 35242 ft | 428 kts | 42° |
| 2026-05-09 03:53 | 10.05321 | 106.08461 | 34611 ft | 430 kts | 43° |
| 2026-05-09 03:53 | 10.07499 | 106.10510 | 34288 ft | 424 kts | 43° |
| 2026-05-09 03:54 | 10.09627 | 106.12515 | 33849 ft | 421 kts | 43° |
| 2026-05-09 03:54 | 10.11072 | 106.13878 | 33498 ft | 419 kts | 43° |
| 2026-05-09 03:55 | 10.22008 | 106.24203 | 30973 ft | 404 kts | 43° |
| 2026-05-09 03:55 | 10.24061 | 106.26139 | 30513 ft | 402 kts | 43° |
| 2026-05-09 03:56 | 10.26105 | 106.28064 | 30054 ft | 400 kts | 43° |
| 2026-05-09 03:56 | 10.28133 | 106.29976 | 29542 ft | 397 kts | 43° |
| 2026-05-09 03:56 | 10.30148 | 106.31878 | 29045 ft | 394 kts | 43° |
| 2026-05-09 03:56 | 10.32145 | 106.33770 | 28563 ft | 391 kts | 44° |
| 2026-05-09 03:57 | 10.34129 | 106.35647 | 28083 ft | 388 kts | 44° |
| 2026-05-09 03:57 | 10.36097 | 106.37509 | 27629 ft | 385 kts | 44° |
| 2026-05-09 03:57 | 10.38049 | 106.39358 | 27173 ft | 382 kts | 44° |
| 2026-05-09 03:57 | 10.39982 | 106.41189 | 26720 ft | 379 kts | 44° |
| 2026-05-09 03:58 | 10.41907 | 106.43010 | 26275 ft | 377 kts | 44° |
| 2026-05-09 03:58 | 10.44320 | 106.45328 | 25766 ft | 372 kts | 48° |
| 2026-05-09 03:58 | 10.45366 | 106.46697 | 25608 ft | 377 kts | 59° |
| 2026-05-09 03:58 | 10.46403 | 106.49198 | 25386 ft | 395 kts | 77° |
| 2026-05-09 03:59 | 10.46823 | 106.52004 | 24575 ft | 409 kts | 83° |
| 2026-05-09 03:59 | 10.47117 | 106.54919 | 23717 ft | 420 kts | 84° |
| 2026-05-09 03:59 | 10.47370 | 106.57974 | 23090 ft | 446 kts | 85° |
| 2026-05-09 03:59 | 10.47618 | 106.61159 | 22423 ft | 456 kts | 85° |
| 2026-05-09 04:00 | 10.47871 | 106.64372 | 21779 ft | 455 kts | 85° |
| 2026-05-09 04:00 | 10.48136 | 106.67560 | 21270 ft | 451 kts | 84° |
| 2026-05-09 04:00 | 10.48417 | 106.70724 | 20935 ft | 449 kts | 84° |
| 2026-05-09 04:00 | 10.48706 | 106.73867 | 20471 ft | 444 kts | 84° |
| 2026-05-09 04:01 | 10.48997 | 106.76980 | 19619 ft | 441 kts | 84° |
| 2026-05-09 04:01 | 10.49184 | 106.78972 | 19102 ft | 438 kts | 84° |
| 2026-05-09 04:02 | 10.50155 | 106.89647 | 16268 ft | 418 kts | 85° |
| 2026-05-09 04:02 | 10.50412 | 106.92505 | 15909 ft | 390 kts | 85° |
| 2026-05-09 04:02 | 10.50650 | 106.95132 | 15533 ft | 357 kts | 85° |
| 2026-05-09 04:02 | 10.50863 | 106.97539 | 15298 ft | 327 kts | 86° |
| 2026-05-09 04:03 | 10.50755 | 106.99704 | 15138 ft | 299 kts | 101° |
| 2026-05-09 04:03 | 10.50105 | 107.01638 | 14845 ft | 285 kts | 117° |
| 2026-05-09 04:03 | 10.48918 | 107.03257 | 14614 ft | 288 kts | 135° |
| 2026-05-09 04:03 | 10.47273 | 107.04424 | 14384 ft | 291 kts | 153° |
| 2026-05-09 04:04 | 10.45330 | 107.05006 | 14224 ft | 294 kts | 171° |
| 2026-05-09 04:04 | 10.43276 | 107.04938 | 14215 ft | 299 kts | 189° |
| 2026-05-09 04:04 | 10.41315 | 107.04210 | 14222 ft | 304 kts | 208° |
| 2026-05-09 04:04 | 10.40157 | 107.03364 | 14223 ft | 306 kts | 221° |
| 2026-05-09 04:05 | 10.38530 | 107.01026 | 14224 ft | 309 kts | 248° |
| 2026-05-09 04:05 | 10.38030 | 106.98900 | 13948 ft | 315 kts | 267° |
| 2026-05-09 04:05 | 10.38345 | 106.96682 | 13229 ft | 323 kts | 292° |
| 2026-05-09 04:05 | 10.39053 | 106.95328 | 12854 ft | 323 kts | 308° |
| 2026-05-09 04:06 | 10.41294 | 106.93433 | 12291 ft | 317 kts | 339° |
| 2026-05-09 04:06 | 10.43393 | 106.92883 | 11869 ft | 310 kts | 358° |
| 2026-05-09 04:06 | 10.45546 | 106.92759 | 11422 ft | 309 kts | 360° |
| 2026-05-09 04:06 | 10.47694 | 106.92644 | 11016 ft | 308 kts | 360° |
| 2026-05-09 04:07 | 10.49826 | 106.92528 | 10611 ft | 307 kts | 359° |
| 2026-05-09 04:07 | 10.51956 | 106.92410 | 10237 ft | 304 kts | 360° |
| 2026-05-09 04:07 | 10.54046 | 106.92294 | 10098 ft | 300 kts | 360° |
| 2026-05-09 04:07 | 10.55423 | 106.92219 | 10016 ft | 300 kts | 360° |